Time;durP1;ratioP1;P1;durP2;ratioP2;P2;SDS_P1;SDS_P2;PMS_P1;PMS_P2;Temp;Humidity;BMP_temperature;BMP_pressure;BME280_temperature;BME280_humidity;BME280_pressure;Samples;Min_cycle;Max_cycle;Signal;HPM_P1;HPM_P2
2023/09/26 00:00:55;;;;;;;3.70;2.50;;;9.20;99.90;;;;;;467166;249;27804;-71
2023/09/26 00:02:56;;;;;;;2.93;2.70;;;9.20;99.90;;;;;;467175;253;27899;-72
2023/09/26 00:04:58;;;;;;;3.07;2.77;;;9.30;99.90;;;;;;467150;253;27885;-70
2023/09/26 00:07:02;;;;;;;4.10;2.97;;;9.30;99.90;;;;;;467165;253;27937;-70
2023/09/26 00:09:00;;;;;;;3.80;2.67;;;9.30;99.90;;;;;;467081;253;28038;-72
2023/09/26 00:11:01;;;;;;;3.17;2.93;;;9.30;99.90;;;;;;467166;253;28675;-71
2023/09/26 00:13:03;;;;;;;4.57;3.07;;;9.30;99.90;;;;;;467178;253;27956;-70
2023/09/26 00:15:04;;;;;;;3.10;2.80;;;9.30;99.90;;;;;;467173;253;27817;-70
2023/09/26 00:17:05;;;;;;;3.40;2.90;;;9.20;99.90;;;;;;467200;253;27683;-71
2023/09/26 00:19:07;;;;;;;7.40;2.97;;;9.20;99.90;;;;;;467177;254;28066;-71
2023/09/26 00:21:08;;;;;;;3.30;3.00;;;9.20;99.90;;;;;;467144;254;27946;-70
2023/09/26 00:23:09;;;;;;;2.93;2.60;;;9.20;99.90;;;;;;467160;253;28065;-70
2023/09/26 00:25:13;;;;;;;3.10;2.80;;;9.10;99.90;;;;;;467171;254;27642;-70
2023/09/26 00:27:15;;;;;;;3.10;2.90;;;9.10;99.90;;;;;;467173;253;28074;-72
2023/09/26 00:29:16;;;;;;;3.20;2.97;;;9.20;99.90;;;;;;467124;253;27900;-70
2023/09/26 00:31:17;;;;;;;2.63;2.43;;;9.20;99.90;;;;;;467162;254;28015;-71
2023/09/26 00:33:18;;;;;;;4.53;3.00;;;9.10;99.90;;;;;;467146;254;27551;-70
2023/09/26 00:35:19;;;;;;;3.10;2.80;;;9.10;99.90;;;;;;467161;253;28070;-70
2023/09/26 00:37:21;;;;;;;3.27;2.80;;;9.00;99.90;;;;;;467189;253;27927;-72
2023/09/26 00:39:22;;;;;;;3.30;3.00;;;9.00;99.90;;;;;;467175;253;28151;-71
2023/09/26 00:41:23;;;;;;;3.83;3.17;;;8.90;99.90;;;;;;467157;252;28011;-71
2023/09/26 00:43:24;;;;;;;3.30;3.10;;;8.90;99.90;;;;;;467144;253;28069;-70
2023/09/26 00:45:26;;;;;;;6.80;2.90;;;8.90;99.90;;;;;;467181;253;27900;-70
2023/09/26 00:47:27;;;;;;;2.90;2.70;;;8.80;99.90;;;;;;467180;253;27900;-71
2023/09/26 00:49:30;;;;;;;2.83;2.63;;;8.70;99.90;;;;;;467181;253;27617;-70
2023/09/26 00:51:30;;;;;;;3.60;2.80;;;8.70;99.90;;;;;;467120;253;28441;-71
2023/09/26 00:53:31;;;;;;;3.47;3.17;;;8.60;99.90;;;;;;467193;253;28772;-71
2023/09/26 00:55:32;;;;;;;3.20;2.97;;;8.60;99.90;;;;;;467220;253;28749;-71
2023/09/26 00:57:37;;;;;;;3.10;2.67;;;8.70;99.90;;;;;;467181;253;28671;-70
2023/09/26 00:59:39;;;;;;;3.77;3.13;;;8.70;99.90;;;;;;467069;254;28074;-71
2023/09/26 01:01:38;;;;;;;2.93;2.73;;;8.60;99.90;;;;;;467065;254;28377;-69
2023/09/26 01:03:40;;;;;;;4.20;2.83;;;8.60;99.90;;;;;;467058;253;28109;-70
2023/09/26 01:05:41;;;;;;;3.43;2.80;;;8.60;99.90;;;;;;467177;253;28287;-72
2023/09/26 01:07:42;;;;;;;3.53;2.87;;;8.60;99.90;;;;;;467158;253;28343;-71
2023/09/26 01:09:43;;;;;;;3.70;3.10;;;8.60;99.90;;;;;;467194;253;28554;-71
2023/09/26 01:11:45;;;;;;;3.47;3.17;;;8.70;99.90;;;;;;467154;253;27957;-70
2023/09/26 01:13:46;;;;;;;2.70;2.50;;;8.70;99.90;;;;;;467132;253;28015;-73
2023/09/26 01:15:47;;;;;;;4.00;3.20;;;8.70;99.90;;;;;;467184;253;28085;-72
2023/09/26 01:17:48;;;;;;;2.93;2.70;;;8.70;99.90;;;;;;467189;253;27938;-70
2023/09/26 01:19:50;;;;;;;3.93;3.40;;;8.60;99.90;;;;;;467163;253;27968;-71
2023/09/26 01:21:51;;;;;;;3.20;3.00;;;8.70;99.90;;;;;;467163;253;27954;-70
2023/09/26 01:23:52;;;;;;;3.53;3.23;;;8.60;99.90;;;;;;467169;254;27900;-70
2023/09/26 01:25:54;;;;;;;3.30;3.00;;;8.70;99.90;;;;;;467188;253;28140;-71
2023/09/26 01:27:57;;;;;;;4.83;3.07;;;8.70;99.90;;;;;;467152;253;27979;-70
2023/09/26 01:29:56;;;;;;;3.17;2.90;;;8.70;99.90;;;;;;467041;254;28173;-70
2023/09/26 01:31:57;;;;;;;3.10;2.80;;;8.70;99.90;;;;;;467144;253;27895;-70
2023/09/26 01:33:58;;;;;;;3.47;3.17;;;8.60;99.90;;;;;;467174;253;28042;-71
2023/09/26 01:36:00;;;;;;;3.07;2.77;;;8.70;99.90;;;;;;467161;253;27959;-71
2023/09/26 01:38:01;;;;;;;3.80;3.10;;;8.70;99.90;;;;;;467143;253;27875;-70
2023/09/26 01:40:03;;;;;;;3.97;3.37;;;8.60;99.90;;;;;;467194;253;28428;-70
2023/09/26 01:42:03;;;;;;;6.73;3.17;;;8.50;99.90;;;;;;467111;254;28437;-70
2023/09/26 01:44:06;;;;;;;3.00;2.80;;;8.50;99.90;;;;;;467158;254;28381;-71
2023/09/26 01:46:06;;;;;;;4.00;2.93;;;8.40;99.90;;;;;;467127;253;28500;-71
2023/09/26 01:48:09;;;;;;;3.97;3.57;;;8.40;99.90;;;;;;467161;253;28397;-71
2023/09/26 01:50:08;;;;;;;3.00;2.70;;;8.40;99.90;;;;;;467043;254;28478;-71
2023/09/26 01:52:10;;;;;;;3.40;3.20;;;8.50;99.90;;;;;;467176;253;28084;-72
2023/09/26 01:54:11;;;;;;;3.43;3.13;;;8.50;99.90;;;;;;467157;253;27879;-71
2023/09/26 01:56:12;;;;;;;3.20;2.90;;;8.50;99.90;;;;;;467144;253;27945;-71
2023/09/26 01:58:13;;;;;;;3.97;3.30;;;8.50;99.90;;;;;;467139;253;27978;-70
2023/09/26 02:00:15;;;;;;;3.00;2.80;;;8.50;99.90;;;;;;467131;253;28097;-70
2023/09/26 02:02:16;;;;;;;2.97;2.77;;;8.50;99.90;;;;;;467177;253;28007;-72
2023/09/26 02:04:17;;;;;;;2.67;2.47;;;8.50;99.90;;;;;;467173;253;27925;-70
2023/09/26 02:06:19;;;;;;;2.93;2.73;;;8.50;99.90;;;;;;467138;253;27481;-71
2023/09/26 02:08:20;;;;;;;3.07;2.80;;;8.40;99.90;;;;;;467142;253;27663;-70
2023/09/26 02:10:21;;;;;;;2.70;2.50;;;8.40;99.90;;;;;;467164;253;27941;-70
2023/09/26 02:12:22;;;;;;;3.23;2.90;;;8.30;99.90;;;;;;467135;253;27956;-70
2023/09/26 02:14:23;;;;;;;3.00;2.80;;;8.30;99.90;;;;;;467147;249;27743;-71
2023/09/26 02:16:25;;;;;;;3.10;2.80;;;8.30;99.90;;;;;;467094;253;27985;-71
2023/09/26 02:18:26;;;;;;;2.80;2.60;;;8.30;99.90;;;;;;467143;253;28592;-71
2023/09/26 02:20:27;;;;;;;3.03;2.83;;;8.30;99.90;;;;;;467101;249;28324;-70
2023/09/26 02:22:28;;;;;;;3.00;2.80;;;8.30;99.90;;;;;;467062;253;28090;-71
2023/09/26 02:24:31;;;;;;;3.20;2.90;;;8.30;99.90;;;;;;466964;253;27944;-70
2023/09/26 02:26:31;;;;;;;2.73;2.53;;;8.30;99.90;;;;;;466895;254;28003;-71
2023/09/26 02:28:32;;;;;;;2.50;2.30;;;8.30;99.90;;;;;;467146;253;27678;-71
2023/09/26 02:30:33;;;;;;;2.67;2.47;;;8.30;99.90;;;;;;467127;254;27997;-69
2023/09/26 02:32:35;;;;;;;3.67;3.37;;;8.30;99.90;;;;;;467107;249;27984;-71
2023/09/26 02:34:36;;;;;;;2.30;2.10;;;8.30;99.90;;;;;;467086;253;27938;-70
2023/09/26 02:36:37;;;;;;;2.70;2.50;;;8.30;99.90;;;;;;467128;253;27975;-70
2023/09/26 02:38:38;;;;;;;2.83;2.60;;;8.20;99.90;;;;;;467187;253;27983;-71
2023/09/26 02:40:40;;;;;;;3.90;2.80;;;8.30;99.90;;;;;;467147;253;27971;-71
2023/09/26 02:42:43;;;;;;;2.90;2.60;;;8.30;99.90;;;;;;467151;253;27746;-71
2023/09/26 02:44:42;;;;;;;3.43;3.17;;;8.20;99.90;;;;;;467027;254;27928;-70
2023/09/26 02:46:43;;;;;;;2.60;2.40;;;8.20;99.90;;;;;;467146;253;28857;-70
2023/09/26 02:48:45;;;;;;;3.50;2.93;;;8.20;99.90;;;;;;467157;253;28410;-71
2023/09/26 02:50:46;;;;;;;2.60;2.40;;;8.10;99.90;;;;;;467155;253;28549;-70
2023/09/26 02:52:47;;;;;;;2.50;2.30;;;8.10;99.90;;;;;;467145;253;28425;-70
2023/09/26 02:54:48;;;;;;;2.87;2.67;;;8.10;99.90;;;;;;467149;253;28541;-70
2023/09/26 02:56:50;;;;;;;3.03;2.83;;;8.10;99.90;;;;;;467133;253;27760;-71
2023/09/26 02:58:51;;;;;;;3.30;2.90;;;8.10;99.90;;;;;;467180;253;27606;-71
2023/09/26 03:00:52;;;;;;;2.60;2.40;;;8.10;99.90;;;;;;467139;253;27986;-70
2023/09/26 03:02:55;;;;;;;3.60;3.30;;;8.10;99.90;;;;;;467167;253;28039;-72
2023/09/26 03:04:55;;;;;;;3.10;2.80;;;8.10;99.90;;;;;;467106;253;27968;-72
2023/09/26 03:06:56;;;;;;;3.27;2.97;;;8.20;99.90;;;;;;467148;253;27938;-70
2023/09/26 03:08:57;;;;;;;2.50;2.40;;;8.10;99.90;;;;;;467137;253;27990;-71
2023/09/26 03:10:59;;;;;;;3.43;3.03;;;8.20;99.90;;;;;;467116;249;28023;-70
2023/09/26 03:13:00;;;;;;;3.03;2.73;;;8.20;99.90;;;;;;467144;253;27590;-71
2023/09/26 03:15:02;;;;;;;2.83;2.63;;;8.10;99.90;;;;;;467173;253;27983;-72
2023/09/26 03:17:05;;;;;;;4.63;3.33;;;8.10;99.90;;;;;;467111;254;28017;-69
2023/09/26 03:19:03;;;;;;;5.00;3.00;;;8.10;99.90;;;;;;467018;254;27982;-72
2023/09/26 03:21:05;;;;;;;2.93;2.73;;;8.10;99.90;;;;;;467171;253;27449;-69
2023/09/26 03:23:06;;;;;;;3.27;2.93;;;8.10;99.90;;;;;;467175;253;27828;-70
2023/09/26 03:25:07;;;;;;;4.40;3.20;;;8.00;99.90;;;;;;467129;253;27952;-70
2023/09/26 03:27:08;;;;;;;3.23;2.93;;;8.00;99.90;;;;;;467123;253;28521;-70
2023/09/26 03:29:10;;;;;;;3.50;3.20;;;8.10;99.90;;;;;;467122;254;28596;-71
2023/09/26 03:31:11;;;;;;;3.20;3.00;;;8.00;99.90;;;;;;467132;250;28610;-70
2023/09/26 03:33:12;;;;;;;3.33;3.03;;;8.00;99.90;;;;;;467145;253;28491;-70
2023/09/26 03:35:13;;;;;;;5.50;3.00;;;8.10;99.90;;;;;;467146;253;28852;-70
2023/09/26 03:37:15;;;;;;;3.33;3.10;;;8.00;99.90;;;;;;467133;253;27579;-70
2023/09/26 03:39:16;;;;;;;3.50;2.67;;;8.00;99.90;;;;;;467124;253;27980;-70
2023/09/26 03:41:17;;;;;;;2.90;2.70;;;8.10;99.90;;;;;;467116;253;27978;-72
2023/09/26 03:43:18;;;;;;;3.13;2.93;;;8.00;99.90;;;;;;467156;253;27934;-71
2023/09/26 03:45:20;;;;;;;2.80;2.60;;;8.00;99.90;;;;;;467146;253;28073;-71
2023/09/26 03:47:21;;;;;;;3.00;2.70;;;8.00;99.90;;;;;;467142;253;28029;-70
2023/09/26 03:49:22;;;;;;;3.50;3.20;;;8.00;99.90;;;;;;467135;253;27993;-71
2023/09/26 03:51:23;;;;;;;4.37;3.27;;;7.90;99.90;;;;;;467160;253;27685;-71
2023/09/26 03:53:25;;;;;;;3.50;3.20;;;7.90;99.90;;;;;;467141;254;27739;-70
2023/09/26 03:55:26;;;;;;;3.27;3.03;;;7.90;99.90;;;;;;467130;253;27946;-70
2023/09/26 03:57:27;;;;;;;3.47;3.17;;;7.90;99.90;;;;;;467057;254;27931;-70
2023/09/26 03:59:28;;;;;;;2.90;2.60;;;7.90;99.90;;;;;;467153;253;27934;-70
2023/09/26 04:01:30;;;;;;;3.43;2.80;;;7.90;99.90;;;;;;467119;253;27987;-71
2023/09/26 04:03:31;;;;;;;2.87;2.67;;;7.90;99.90;;;;;;467139;253;28062;-70
2023/09/26 04:05:32;;;;;;;3.70;3.40;;;7.90;99.90;;;;;;467116;254;28590;-71
2023/09/26 04:07:33;;;;;;;3.20;2.90;;;7.90;99.90;;;;;;467149;250;28474;-72
2023/09/26 04:09:37;;;;;;;3.13;2.93;;;7.90;99.90;;;;;;467150;253;28322;-70
2023/09/26 04:11:39;;;;;;;2.97;2.77;;;7.80;99.90;;;;;;467122;253;28075;-70
2023/09/26 04:13:40;;;;;;;2.80;2.60;;;7.80;99.90;;;;;;467152;253;28475;-72
2023/09/26 04:15:41;;;;;;;2.57;2.43;;;7.80;99.90;;;;;;467145;253;28485;-70
2023/09/26 04:17:42;;;;;;;2.90;2.70;;;7.80;99.90;;;;;;467144;253;28541;-71
2023/09/26 04:19:44;;;;;;;3.13;2.83;;;7.80;99.90;;;;;;467139;253;28681;-70
2023/09/26 04:21:45;;;;;;;2.93;2.73;;;7.80;99.90;;;;;;467175;253;27948;-71
2023/09/26 04:23:46;;;;;;;3.70;3.40;;;7.80;99.90;;;;;;467144;253;27984;-71
2023/09/26 04:25:47;;;;;;;3.80;2.97;;;7.80;99.90;;;;;;467158;253;27571;-70
2023/09/26 04:27:49;;;;;;;5.20;3.00;;;7.90;99.90;;;;;;467143;254;27765;-71
2023/09/26 04:29:51;;;;;;;4.30;3.07;;;7.90;99.90;;;;;;467184;253;28199;-71
2023/09/26 04:31:51;;;;;;;3.77;3.27;;;7.90;99.90;;;;;;467091;253;28132;-70
2023/09/26 04:33:52;;;;;;;3.60;3.30;;;7.90;99.90;;;;;;467151;249;28223;-70
2023/09/26 04:35:54;;;;;;;3.20;2.90;;;7.90;99.90;;;;;;467161;253;27992;-70
2023/09/26 04:37:55;;;;;;;3.80;3.30;;;7.80;99.90;;;;;;467115;253;28071;-72
2023/09/26 04:39:56;;;;;;;3.73;3.43;;;7.70;99.90;;;;;;467187;253;27715;-71
2023/09/26 04:41:57;;;;;;;3.43;3.13;;;7.70;99.90;;;;;;467150;253;27579;-71
2023/09/26 04:43:59;;;;;;;5.87;3.83;;;7.70;99.90;;;;;;467167;253;28083;-70
2023/09/26 04:46:00;;;;;;;3.53;3.23;;;7.70;99.90;;;;;;467162;253;27614;-70
2023/09/26 04:48:01;;;;;;;3.47;3.17;;;7.70;99.90;;;;;;467173;249;28027;-71
2023/09/26 04:50:02;;;;;;;3.37;3.10;;;7.70;99.90;;;;;;467182;253;28592;-72
2023/09/26 04:52:04;;;;;;;3.40;3.10;;;7.70;99.90;;;;;;467165;254;28405;-70
2023/09/26 04:54:05;;;;;;;4.20;3.80;;;7.70;99.90;;;;;;467172;253;28469;-71
2023/09/26 04:56:09;;;;;;;3.43;3.23;;;7.70;99.90;;;;;;467197;254;30482;-70
2023/09/26 04:58:08;;;;;;;3.93;3.53;;;7.70;99.90;;;;;;466895;254;28558;-70
2023/09/26 05:00:09;;;;;;;3.67;3.33;;;7.70;99.90;;;;;;467211;254;27977;-72
2023/09/26 05:02:10;;;;;;;4.20;3.80;;;7.70;99.90;;;;;;467176;253;28049;-70
2023/09/26 05:04:11;;;;;;;5.23;3.80;;;7.70;99.90;;;;;;467200;253;27982;-71
2023/09/26 05:06:13;;;;;;;3.50;3.20;;;7.70;99.90;;;;;;467235;254;27988;-71
2023/09/26 05:08:14;;;;;;;3.50;3.20;;;7.70;99.90;;;;;;467211;253;27893;-70
2023/09/26 05:10:15;;;;;;;3.50;3.20;;;7.80;99.90;;;;;;467217;253;27602;-72
2023/09/26 05:12:16;;;;;;;4.17;3.00;;;7.80;99.90;;;;;;467188;253;27594;-70
2023/09/26 05:14:17;;;;;;;4.30;3.60;;;7.80;99.90;;;;;;467020;254;27557;-72
2023/09/26 05:16:19;;;;;;;3.20;3.00;;;7.80;99.90;;;;;;467203;253;28207;-73
2023/09/26 05:18:20;;;;;;;3.30;3.10;;;7.90;99.90;;;;;;467174;253;28020;-70
2023/09/26 05:20:23;;;;;;;3.13;2.90;;;7.90;99.90;;;;;;467182;253;27604;-70
2023/09/26 05:22:22;;;;;;;3.17;2.93;;;7.90;99.90;;;;;;467032;254;27880;-70
2023/09/26 05:24:23;;;;;;;3.80;3.43;;;7.90;99.90;;;;;;467156;253;27851;-70
2023/09/26 05:26:25;;;;;;;3.87;3.57;;;7.90;99.90;;;;;;467148;253;27582;-72
2023/09/26 05:28:26;;;;;;;3.53;3.23;;;7.90;99.90;;;;;;467184;253;28419;-71
2023/09/26 05:30:27;;;;;;;3.13;2.90;;;7.90;99.90;;;;;;467174;253;28518;-71
2023/09/26 05:32:28;;;;;;;3.60;3.33;;;7.90;99.90;;;;;;467133;253;29145;-71
2023/09/26 05:34:30;;;;;;;3.30;3.00;;;7.90;99.90;;;;;;467197;253;28272;-70
2023/09/26 05:36:33;;;;;;;3.10;2.90;;;7.90;99.90;;;;;;467182;253;28459;-71
2023/09/26 05:38:32;;;;;;;3.27;2.90;;;7.90;99.90;;;;;;467103;254;28128;-69
2023/09/26 05:40:34;;;;;;;4.57;3.13;;;7.90;99.90;;;;;;467140;250;28041;-71
2023/09/26 05:42:35;;;;;;;3.97;3.60;;;7.90;99.90;;;;;;467174;249;27746;-70
2023/09/26 05:44:36;;;;;;;4.03;3.63;;;7.90;99.90;;;;;;467197;253;28106;-70
2023/09/26 05:46:37;;;;;;;3.97;3.20;;;7.70;99.90;;;;;;467200;253;28019;-70
2023/09/26 05:48:40;;;;;;;3.53;3.23;;;7.60;99.90;;;;;;467163;253;27925;-70
2023/09/26 05:50:40;;;;;;;3.93;3.53;;;7.70;99.90;;;;;;467113;254;28142;-70
2023/09/26 05:52:41;;;;;;;3.30;3.00;;;7.70;99.90;;;;;;467184;253;28081;-72
2023/09/26 05:54:42;;;;;;;4.23;3.37;;;7.70;99.90;;;;;;467179;253;27810;-70
2023/09/26 05:56:44;;;;;;;3.40;3.10;;;7.80;99.90;;;;;;467179;253;27597;-70
2023/09/26 05:58:46;;;;;;;7.27;3.10;;;7.80;99.90;;;;;;467154;253;27980;-70
2023/09/26 06:00:49;;;;;;;4.33;3.30;;;7.90;99.90;;;;;;467071;253;28112;-70
2023/09/26 06:02:50;;;;;;;7.73;3.37;;;7.90;99.90;;;;;;467106;253;27711;-70
2023/09/26 06:04:51;;;;;;;3.57;3.20;;;7.80;99.90;;;;;;467161;253;28076;-71
2023/09/26 06:06:52;;;;;;;3.50;3.20;;;7.90;99.90;;;;;;467127;253;27706;-70
2023/09/26 06:08:54;;;;;;;7.53;4.00;;;7.90;99.90;;;;;;467188;253;27924;-70
2023/09/26 06:10:55;;;;;;;3.83;3.43;;;7.90;99.90;;;;;;467189;250;27929;-71
2023/09/26 06:12:56;;;;;;;3.60;3.30;;;7.90;99.90;;;;;;467183;253;27930;-71
2023/09/26 06:14:57;;;;;;;6.83;3.60;;;8.00;99.90;;;;;;467191;253;27852;-70
2023/09/26 06:16:59;;;;;;;3.70;3.30;;;7.90;99.90;;;;;;467155;254;28267;-70
2023/09/26 06:19:00;;;;;;;3.70;3.40;;;8.00;99.90;;;;;;467152;253;27972;-71
2023/09/26 06:21:01;;;;;;;3.60;3.30;;;8.00;99.90;;;;;;467179;253;27957;-70
2023/09/26 06:23:02;;;;;;;4.40;4.00;;;8.00;99.90;;;;;;467158;253;28295;-70
2023/09/26 06:25:04;;;;;;;3.13;2.93;;;8.10;99.90;;;;;;467171;249;28461;-72
2023/09/26 06:27:05;;;;;;;3.50;3.17;;;8.10;99.90;;;;;;467112;253;28423;-70
2023/09/26 06:29:06;;;;;;;3.90;3.60;;;8.20;99.90;;;;;;467157;253;28544;-70
2023/09/26 06:31:07;;;;;;;3.60;3.03;;;8.20;99.90;;;;;;467185;253;28367;-71
2023/09/26 06:33:09;;;;;;;4.27;3.87;;;8.30;99.90;;;;;;467162;253;28211;-70
2023/09/26 06:35:10;;;;;;;4.20;3.80;;;8.30;99.90;;;;;;467139;253;27481;-70
2023/09/26 06:37:11;;;;;;;5.27;4.37;;;8.40;99.90;;;;;;467150;253;28014;-70
2023/09/26 06:39:12;;;;;;;4.83;4.07;;;8.40;99.90;;;;;;467152;253;28041;-70
2023/09/26 06:41:14;;;;;;;9.50;5.30;;;8.50;99.90;;;;;;467212;254;27596;-72
2023/09/26 06:43:15;;;;;;;5.37;4.30;;;8.60;99.90;;;;;;467145;253;27941;-70
2023/09/26 06:45:16;;;;;;;4.70;4.30;;;8.60;99.90;;;;;;467145;253;27966;-72
2023/09/26 06:47:17;;;;;;;4.63;4.00;;;8.60;99.90;;;;;;467116;253;27930;-70
2023/09/26 06:49:19;;;;;;;4.50;4.10;;;8.70;99.90;;;;;;467172;250;27952;-70
2023/09/26 06:51:20;;;;;;;5.23;4.73;;;8.70;99.90;;;;;;467176;254;27855;-71
2023/09/26 06:53:22;;;;;;;4.50;4.10;;;8.70;99.90;;;;;;467205;253;28002;-70
2023/09/26 06:55:22;;;;;;;4.30;3.90;;;8.70;99.90;;;;;;467114;254;27830;-71
2023/09/26 06:57:26;;;;;;;4.63;4.23;;;8.80;99.90;;;;;;467137;253;28061;-70
2023/09/26 06:59:25;;;;;;;5.00;4.13;;;8.80;99.90;;;;;;467066;254;27940;-70
2023/09/26 07:01:26;;;;;;;4.33;3.97;;;8.90;99.90;;;;;;467154;253;27957;-72
2023/09/26 07:03:27;;;;;;;4.83;4.30;;;8.90;99.90;;;;;;467123;253;28374;-70
2023/09/26 07:05:29;;;;;;;3.70;3.40;;;9.00;99.90;;;;;;467122;253;28516;-72
2023/09/26 07:07:31;;;;;;;4.37;3.97;;;9.00;99.90;;;;;;467164;249;28487;-72
2023/09/26 07:09:31;;;;;;;4.40;4.00;;;9.10;99.90;;;;;;467090;253;28396;-70
2023/09/26 07:11:32;;;;;;;3.97;3.67;;;9.20;99.90;;;;;;467164;249;28456;-71
2023/09/26 07:13:37;;;;;;;4.73;4.27;;;9.30;99.90;;;;;;467155;253;27777;-70
2023/09/26 07:15:38;;;;;;;3.90;3.60;;;9.40;99.90;;;;;;467138;253;27939;-70
2023/09/26 07:17:39;;;;;;;4.07;3.70;;;9.50;99.90;;;;;;467152;253;27955;-70
2023/09/26 07:19:40;;;;;;;5.30;4.40;;;9.50;99.90;;;;;;467129;254;28111;-71
2023/09/26 07:21:42;;;;;;;9.60;4.30;;;9.60;99.90;;;;;;467150;253;27958;-70
2023/09/26 07:23:43;;;;;;;3.90;3.60;;;9.70;99.90;;;;;;467143;253;27682;-70
2023/09/26 07:25:44;;;;;;;5.67;3.83;;;9.70;99.90;;;;;;467190;254;27967;-70
2023/09/26 07:27:45;;;;;;;3.83;3.53;;;9.70;99.90;;;;;;467140;254;27950;-70
2023/09/26 07:29:47;;;;;;;4.30;4.00;;;9.80;99.90;;;;;;467152;253;27610;-71
2023/09/26 07:31:48;;;;;;;4.43;4.03;;;9.90;99.90;;;;;;467118;254;27798;-70
2023/09/26 07:33:49;;;;;;;4.17;3.60;;;10.00;99.90;;;;;;467122;253;28199;-70
2023/09/26 07:35:51;;;;;;;4.10;3.80;;;10.00;99.90;;;;;;467146;253;28695;-72
2023/09/26 07:37:52;;;;;;;4.40;4.00;;;10.10;99.90;;;;;;467123;254;28521;-70
2023/09/26 07:39:53;;;;;;;4.60;4.10;;;10.10;99.90;;;;;;467140;253;28542;-70
2023/09/26 07:41:54;;;;;;;4.00;3.60;;;10.20;99.90;;;;;;467154;253;28396;-71
2023/09/26 07:43:55;;;;;;;3.80;3.50;;;10.30;99.90;;;;;;467143;253;28189;-71
2023/09/26 07:46:00;;;;;;;4.10;3.60;;;10.30;99.90;;;;;;467149;249;28006;-73
2023/09/26 07:47:58;;;;;;;4.20;3.80;;;10.40;99.90;;;;;;466871;254;27928;-70
2023/09/26 07:50:01;;;;;;;3.67;3.37;;;10.50;99.90;;;;;;467127;253;27740;-71
2023/09/26 07:52:00;;;;;;;4.53;4.13;;;10.60;99.90;;;;;;467075;254;27905;-71
2023/09/26 07:54:02;;;;;;;4.57;4.20;;;10.70;99.90;;;;;;467159;254;28058;-70
2023/09/26 07:56:03;;;;;;;4.13;3.33;;;10.80;99.90;;;;;;467176;253;28050;-71
2023/09/26 07:58:04;;;;;;;4.13;3.83;;;10.90;99.90;;;;;;467165;253;28008;-70
2023/09/26 08:00:11;;;;;;;4.93;4.43;;;11.00;99.90;;;;;;467187;253;28046;-71
2023/09/26 08:02:07;;;;;;;4.87;3.50;;;11.00;99.90;;;;;;466879;254;28624;-71
2023/09/26 08:04:08;;;;;;;4.13;3.83;;;11.10;99.90;;;;;;467158;253;28523;-71
2023/09/26 08:06:09;;;;;;;5.33;3.97;;;11.30;99.90;;;;;;467181;254;28669;-70
2023/09/26 08:08:11;;;;;;;3.63;3.33;;;11.30;99.90;;;;;;467129;253;28062;-70
2023/09/26 08:10:12;;;;;;;5.00;4.50;;;11.40;99.90;;;;;;467158;253;28073;-71
2023/09/26 08:12:13;;;;;;;4.90;4.43;;;11.60;99.90;;;;;;467180;253;28094;-72
2023/09/26 08:14:14;;;;;;;3.80;3.50;;;11.70;99.90;;;;;;467160;253;28299;-71
2023/09/26 08:16:15;;;;;;;4.00;3.70;;;11.80;99.90;;;;;;467164;249;28122;-71
2023/09/26 08:18:17;;;;;;;4.87;3.83;;;11.80;99.90;;;;;;467140;253;28142;-70
2023/09/26 08:20:18;;;;;;;3.90;3.50;;;11.90;99.90;;;;;;467161;253;28103;-71
2023/09/26 08:22:19;;;;;;;4.20;3.90;;;12.00;99.90;;;;;;467165;253;28302;-72
2023/09/26 08:24:20;;;;;;;4.60;4.20;;;12.10;99.90;;;;;;467088;253;28333;-70
2023/09/26 08:26:22;;;;;;;3.90;3.53;;;12.10;99.90;;;;;;467120;253;28891;-70
2023/09/26 08:28:23;;;;;;;4.13;3.67;;;12.10;99.90;;;;;;467140;253;29487;-71
2023/09/26 08:30:24;;;;;;;4.03;3.30;;;12.30;99.90;;;;;;467181;253;28922;-70
2023/09/26 08:32:25;;;;;;;4.07;3.77;;;12.30;99.90;;;;;;467173;253;28450;-71
2023/09/26 08:34:27;;;;;;;4.53;3.60;;;12.40;99.90;;;;;;467152;253;28410;-71
2023/09/26 08:36:29;;;;;;;4.77;3.90;;;12.50;99.90;;;;;;467169;253;28552;-71
2023/09/26 08:38:29;;;;;;;6.50;3.83;;;12.60;99.90;;;;;;467110;254;28165;-71
2023/09/26 08:40:30;;;;;;;4.10;3.70;;;12.60;99.90;;;;;;467183;253;28169;-71
2023/09/26 08:42:36;;;;;;;3.67;3.30;;;12.70;99.90;;;;;;467170;253;28314;-71
2023/09/26 08:44:33;;;;;;;3.93;3.53;;;12.70;99.90;;;;;;466974;254;28089;-70
2023/09/26 08:46:35;;;;;;;4.20;3.80;;;12.70;99.90;;;;;;467158;249;28421;-71
2023/09/26 08:48:35;;;;;;;4.10;3.60;;;12.90;99.90;;;;;;467171;253;28548;-72
2023/09/26 08:50:37;;;;;;;4.93;4.20;;;12.90;99.90;;;;;;467193;253;28781;-71
2023/09/26 08:52:38;;;;;;;4.43;3.70;;;12.90;99.90;;;;;;467161;253;29133;-71
2023/09/26 08:54:39;;;;;;;4.67;4.13;;;13.00;99.90;;;;;;467174;249;28730;-71
2023/09/26 08:56:40;;;;;;;4.63;3.60;;;13.10;99.90;;;;;;467179;253;28882;-71
2023/09/26 08:58:42;;;;;;;3.80;3.50;;;13.20;99.90;;;;;;467188;254;28434;-73
2023/09/26 09:00:43;;;;;;;4.20;3.30;;;13.20;99.90;;;;;;467177;253;28840;-71
2023/09/26 09:02:44;;;;;;;4.97;4.10;;;13.40;99.90;;;;;;467165;253;28445;-71
2023/09/26 09:04:45;;;;;;;4.27;3.77;;;13.60;99.90;;;;;;467131;253;28082;-71
2023/09/26 09:06:47;;;;;;;3.27;3.07;;;13.70;99.90;;;;;;467154;253;28169;-71
2023/09/26 09:08:48;;;;;;;3.50;3.20;;;13.80;99.90;;;;;;467166;253;28439;-71
2023/09/26 09:10:52;;;;;;;3.70;3.40;;;13.90;99.90;;;;;;467155;250;28360;-71
2023/09/26 09:12:53;;;;;;;3.10;2.90;;;14.10;99.90;;;;;;467157;253;28311;-71
2023/09/26 09:14:55;;;;;;;5.73;3.80;;;14.20;99.90;;;;;;467147;253;28380;-71
2023/09/26 09:16:56;;;;;;;3.13;2.90;;;14.60;99.90;;;;;;467190;253;28971;-72
2023/09/26 09:18:58;;;;;;;3.80;3.47;;;15.10;99.90;;;;;;467174;253;28371;-72
2023/09/26 09:20:58;;;;;;;3.03;2.80;;;15.00;99.90;;;;;;467120;254;28253;-71
2023/09/26 09:23:00;;;;;;;4.30;3.27;;;15.00;99.90;;;;;;467163;254;29880;-71
2023/09/26 09:25:04;;;;;;;3.53;3.23;;;15.10;99.90;;;;;;467167;253;28833;-71
2023/09/26 09:27:03;;;;;;;7.43;3.23;;;15.10;99.90;;;;;;466910;254;29000;-72
2023/09/26 09:29:03;;;;;;;3.53;3.07;;;15.20;99.90;;;;;;467179;253;28995;-71
2023/09/26 09:31:05;;;;;;;3.60;3.30;;;15.10;99.90;;;;;;467155;253;28524;-71
2023/09/26 09:33:06;;;;;;;9.50;3.53;;;15.40;99.90;;;;;;467184;253;28438;-71
2023/09/26 09:35:08;;;;;;;3.50;3.20;;;15.60;99.90;;;;;;467175;249;28838;-71
2023/09/26 09:37:08;;;;;;;3.67;3.37;;;15.50;99.90;;;;;;467102;254;28980;-71
2023/09/26 09:39:10;;;;;;;3.63;2.83;;;15.40;99.90;;;;;;467149;254;28527;-71
2023/09/26 09:41:11;;;;;;;4.07;3.67;;;15.30;99.90;;;;;;467146;253;28884;-71
2023/09/26 09:43:12;;;;;;;3.13;2.80;;;15.30;99.90;;;;;;467155;254;29214;-73
2023/09/26 09:45:13;;;;;;;3.50;3.20;;;15.60;99.90;;;;;;467126;254;28922;-72
2023/09/26 09:47:15;;;;;;;3.67;3.37;;;15.60;99.90;;;;;;467046;253;28865;-71
2023/09/26 09:49:16;;;;;;;3.50;3.20;;;15.80;99.90;;;;;;467080;253;29468;-71
2023/09/26 09:51:17;;;;;;;2.63;2.43;;;15.90;99.90;;;;;;467104;253;29300;-71
2023/09/26 09:53:18;;;;;;;5.63;3.27;;;16.00;99.90;;;;;;467153;253;29438;-73
2023/09/26 09:55:20;;;;;;;3.27;2.90;;;16.00;99.90;;;;;;467129;253;28830;-71
2023/09/26 09:57:21;;;;;;;3.33;2.93;;;16.00;99.90;;;;;;467091;253;28976;-72
2023/09/26 09:59:22;;;;;;;2.77;2.57;;;16.00;99.90;;;;;;467058;253;28922;-71
2023/09/26 10:01:26;;;;;;;5.40;3.27;;;16.10;99.90;;;;;;467084;249;28915;-71
2023/09/26 10:03:25;;;;;;;3.07;2.77;;;16.20;99.90;;;;;;466986;254;28880;-72
2023/09/26 10:05:26;;;;;;;3.23;2.97;;;16.30;99.90;;;;;;467084;254;28874;-71
2023/09/26 10:07:27;;;;;;;4.27;2.83;;;16.30;99.90;;;;;;467092;253;28939;-72
2023/09/26 10:09:29;;;;;;;3.47;2.70;;;16.20;99.90;;;;;;467128;253;28971;-73
2023/09/26 10:11:30;;;;;;;2.80;2.60;;;16.20;99.90;;;;;;467141;253;29486;-72
2023/09/26 10:13:31;;;;;;;3.50;3.00;;;16.30;99.90;;;;;;467128;253;29417;-72
2023/09/26 10:15:36;;;;;;;2.90;2.70;;;16.40;99.90;;;;;;467124;253;29285;-72
2023/09/26 10:17:33;;;;;;;2.90;2.37;;;16.60;99.90;;;;;;466795;254;28943;-72
2023/09/26 10:19:35;;;;;;;2.80;2.47;;;16.70;99.90;;;;;;467160;253;28878;-72
2023/09/26 10:21:37;;;;;;;3.80;2.63;;;17.10;99.90;;;;;;467127;253;28974;-71
2023/09/26 10:23:37;;;;;;;10.60;2.73;;;17.50;99.90;;;;;;467091;254;28864;-72
2023/09/26 10:25:38;;;;;;;2.30;2.13;;;17.60;99.90;;;;;;467084;249;28899;-75
2023/09/26 10:27:40;;;;;;;4.80;2.47;;;17.30;99.90;;;;;;467113;250;28832;-71
2023/09/26 10:29:41;;;;;;;3.13;2.23;;;17.30;99.90;;;;;;467095;253;28943;-72
2023/09/26 10:31:42;;;;;;;2.50;2.30;;;17.30;99.90;;;;;;467146;254;28828;-71
2023/09/26 10:33:43;;;;;;;2.90;2.47;;;17.30;99.90;;;;;;467120;254;28971;-71
2023/09/26 10:35:45;;;;;;;2.80;2.10;;;17.40;99.90;;;;;;467151;253;29422;-73